createdAt,value
2022-09-23T00:01:22.399Z,100118.94
2022-09-23T00:03:50.529Z,100116.31
2022-09-23T00:06:21.611Z,100116.31
2022-09-23T00:08:50.224Z,100112.91
2022-09-23T00:11:20.277Z,100112.91
2022-09-23T00:13:50.075Z,100111.19
2022-09-23T00:16:20.281Z,100108.66
2022-09-23T00:18:49.419Z,100107.63
2022-09-23T00:21:19.570Z,100103.38
2022-09-23T00:23:47.333Z,100095.75
2022-09-23T00:26:18.181Z,100102.28
2022-09-23T00:28:46.144Z,100093.00
2022-09-23T00:31:16.144Z,100097.94
2022-09-23T00:33:44.226Z,100093.88
2022-09-23T00:36:15.655Z,100080.31
2022-09-23T00:38:45.831Z,100090.53
2022-09-23T00:41:16.964Z,100073.63
2022-09-23T00:43:47.576Z,100071.00
2022-09-23T00:46:19.728Z,100073.75
2022-09-23T00:48:53.199Z,100082.38
2022-09-23T00:51:25.746Z,100079.75
2022-09-23T00:53:54.981Z,100080.41
2022-09-23T00:56:25.319Z,100077.81
2022-09-23T00:58:54.842Z,100082.69
2022-09-23T01:01:22.805Z,100074.94
2022-09-23T01:03:52.351Z,100082.63
2022-09-23T01:06:20.437Z,100076.41
2022-09-23T01:08:48.813Z,100072.78
2022-09-23T01:11:41.258Z,100077.69
2022-09-23T01:14:34.352Z,100078.50
2022-09-23T01:17:06.544Z,100080.06
2022-09-23T01:19:54.351Z,100077.22
2022-09-23T01:22:29.181Z,100080.31
2022-09-23T01:25:13.344Z,100079.19
2022-09-23T01:28:02.685Z,100075.84
2022-09-23T01:30:44.250Z,100069.94
2022-09-23T01:33:20.070Z,100062.88
2022-09-23T01:36:06.136Z,100072.56
2022-09-23T01:38:41.088Z,100074.13
2022-09-23T01:41:20.426Z,100073.41
2022-09-23T01:43:55.559Z,100061.81
2022-09-23T01:46:28.851Z,100069.34
2022-09-23T01:49:03.646Z,100068.75
2022-09-23T01:51:35.359Z,100027.13
2022-09-23T01:54:09.297Z,100066.25
2022-09-23T01:56:41.372Z,100072.16
2022-09-23T01:59:15.573Z,100066.13
2022-09-23T02:01:50.873Z,100069.28
2022-09-23T02:04:25.164Z,100064.88
2022-09-23T02:06:58.017Z,100064.59
2022-09-23T02:09:29.487Z,100067.41
2022-09-23T02:12:04.790Z,100065.66
2022-09-23T02:14:37.478Z,100062.22
2022-09-23T02:17:12.217Z,100065.38
2022-09-23T02:19:44.622Z,100066.00
2022-09-23T02:22:16.888Z,100058.28
2022-09-23T02:24:45.051Z,100064.59
2022-09-23T02:27:21.183Z,100059.19
2022-09-23T02:29:58.017Z,100066.03
2022-09-23T02:32:34.650Z,100065.63
2022-09-23T02:35:10.935Z,100073.56
2022-09-23T02:37:44.896Z,100072.84
2022-09-23T02:40:23.605Z,100059.34
2022-09-23T02:43:02.821Z,100076.41
2022-09-23T02:45:32.147Z,100069.94
2022-09-23T02:48:06.532Z,100082.41
2022-09-23T02:50:34.934Z,100074.22
2022-09-23T02:53:03.202Z,100067.53
2022-09-23T02:55:32.356Z,100071.66
2022-09-23T02:58:03.021Z,100076.53
2022-09-23T03:00:41.126Z,100074.81
2022-09-23T03:03:24.147Z,100071.41
2022-09-23T03:05:56.397Z,100069.56
2022-09-23T03:08:37.245Z,100074.41
2022-09-23T03:11:08.558Z,100066.09
2022-09-23T03:13:48.198Z,100071.84
2022-09-23T03:16:30.007Z,100066.09
2022-09-23T03:19:12.772Z,100067.88
2022-09-23T03:21:45.951Z,100066.28
2022-09-23T03:24:15.768Z,100068.00
2022-09-23T03:26:47.669Z,100066.44
2022-09-23T03:29:17.882Z,100072.97
2022-09-23T03:31:46.487Z,100070.41
2022-09-23T03:34:21.385Z,100072.00
2022-09-23T03:37:00.481Z,100072.72
2022-09-23T03:39:36.390Z,100062.09
2022-09-23T03:42:15.338Z,100072.19
2022-09-23T03:44:45.482Z,100073.03
2022-09-23T03:47:14.631Z,100068.00
2022-09-23T03:49:48.394Z,100071.25
2022-09-23T03:52:16.989Z,100068.06
2022-09-23T03:54:45.131Z,100065.50
2022-09-23T03:57:13.958Z,100072.03
2022-09-23T03:59:42.228Z,100069.41
2022-09-23T04:02:11.847Z,100068.28
2022-09-23T04:04:41.047Z,100065.75
2022-09-23T04:07:11.024Z,100061.56
2022-09-23T04:09:39.462Z,100055.66
2022-09-23T04:12:08.141Z,100053.31
2022-09-23T04:14:35.995Z,100054.75
2022-09-23T04:17:03.936Z,100052.31
2022-09-23T04:19:31.781Z,100053.53
2022-09-23T04:21:59.580Z,100050.50
2022-09-23T04:24:29.000Z,100038.41
2022-09-23T04:26:57.540Z,100056.19
2022-09-23T04:29:26.115Z,100053.63
2022-09-23T04:31:54.746Z,100056.97
2022-09-23T04:34:22.902Z,100052.78
2022-09-23T04:36:51.188Z,100035.88
2022-09-23T04:39:19.508Z,100048.81
2022-09-23T04:41:48.711Z,100050.84
2022-09-23T04:44:17.089Z,100055.91
2022-09-23T04:46:47.987Z,100053.88
2022-09-23T04:49:16.748Z,100053.03
2022-09-23T04:51:44.983Z,100060.03
2022-09-23T04:54:14.935Z,100053.63
2022-09-23T04:56:43.090Z,100055.50
2022-09-23T04:59:12.235Z,100063.41
2022-09-23T05:01:40.087Z,100067.16
2022-09-23T05:04:13.801Z,100072.22
2022-09-23T05:06:45.079Z,100070.84
2022-09-23T05:09:16.450Z,100071.16
2022-09-23T05:11:44.980Z,100074.84
2022-09-23T05:14:14.362Z,100075.97
2022-09-23T05:16:42.358Z,100076.56
2022-09-23T05:19:10.339Z,100084.50
2022-09-23T05:21:38.233Z,100081.53
2022-09-23T05:24:06.376Z,100086.84
2022-09-23T05:26:34.378Z,100087.47
2022-09-23T05:29:02.231Z,100077.66
2022-09-23T05:31:32.089Z,100088.06
2022-09-23T05:34:01.704Z,100088.53
2022-09-23T05:36:35.610Z,100094.44
2022-09-23T05:39:06.759Z,100086.88
2022-09-23T05:41:34.954Z,100093.88
2022-09-23T05:44:03.364Z,100099.03
2022-09-23T05:46:33.140Z,100093.16
2022-09-23T05:49:03.229Z,100100.00
2022-09-23T05:51:32.527Z,100100.09
2022-09-23T05:54:04.267Z,100090.13
2022-09-23T05:56:33.654Z,100096.81
2022-09-23T05:59:02.697Z,100093.47
2022-09-23T06:01:34.479Z,100085.28
2022-09-23T06:04:03.615Z,100104.81
2022-09-23T06:06:33.792Z,100107.59
2022-09-23T06:09:02.109Z,100088.22
2022-09-23T06:11:32.046Z,100100.25
2022-09-23T06:14:02.258Z,100099.59
2022-09-23T06:16:33.114Z,100097.91
2022-09-23T06:19:05.952Z,100099.84
2022-09-23T06:21:35.448Z,100104.38
2022-09-23T06:24:04.130Z,100107.94
2022-09-23T06:26:34.827Z,100105.53
2022-09-23T06:29:03.271Z,100079.19
2022-09-23T06:31:32.963Z,100101.59
2022-09-23T06:34:12.247Z,100104.06
2022-09-23T06:36:44.365Z,100095.69
2022-09-23T06:39:13.038Z,100102.56
2022-09-23T06:41:40.815Z,100099.78
2022-09-23T06:44:13.210Z,100099.69
2022-09-23T06:46:43.800Z,100090.28
2022-09-23T06:49:13.290Z,100101.41
2022-09-23T06:51:41.479Z,100098.44
2022-09-23T06:54:09.621Z,100096.31
2022-09-23T06:56:39.695Z,100097.34
2022-09-23T06:59:10.340Z,100095.25
2022-09-23T07:01:38.368Z,100098.97
2022-09-23T07:04:08.101Z,100102.56
2022-09-23T07:06:36.094Z,100090.94
2022-09-23T07:09:04.347Z,100093.88
2022-09-23T07:11:32.217Z,100095.63
2022-09-23T07:14:03.241Z,100101.66
2022-09-23T07:16:31.617Z,100096.81
2022-09-23T07:18:59.661Z,100102.91
2022-09-23T07:21:29.094Z,100098.88
2022-09-23T07:23:57.993Z,100101.50
2022-09-23T07:26:26.563Z,100108.50
2022-09-23T07:28:56.855Z,100110.34
2022-09-23T07:31:37.696Z,100106.91
2022-09-23T07:34:08.465Z,100109.78
2022-09-23T07:36:40.683Z,100110.69
2022-09-23T07:39:11.025Z,100111.00
2022-09-23T07:41:39.610Z,100116.22
2022-09-23T07:44:08.151Z,100108.09
2022-09-23T07:46:37.366Z,100104.97
2022-09-23T07:49:06.237Z,100110.19
2022-09-23T07:51:36.901Z,100096.78
2022-09-23T07:54:08.632Z,100111.44
2022-09-23T07:56:37.692Z,100110.00
2022-09-23T07:59:05.737Z,100106.78
2022-09-23T08:01:35.470Z,100111.94
2022-09-23T08:04:05.652Z,100108.75
2022-09-23T08:06:33.898Z,100104.72
2022-09-23T08:09:02.646Z,100101.53
2022-09-23T08:11:32.832Z,100111.66
2022-09-23T08:14:00.637Z,100112.59
2022-09-23T08:16:28.550Z,100106.00
2022-09-23T08:18:56.525Z,100108.56
2022-09-23T08:21:24.366Z,100106.91
2022-09-23T08:23:52.460Z,100106.22
2022-09-23T08:26:22.481Z,100113.00
2022-09-23T08:28:54.610Z,100098.97
2022-09-23T08:31:23.288Z,100096.63
2022-09-23T08:33:55.704Z,100094.28
2022-09-23T08:36:23.626Z,100090.19
2022-09-23T08:38:51.641Z,100072.66
2022-09-23T08:41:28.459Z,100074.41
2022-09-23T08:44:00.510Z,100088.13
2022-09-23T08:46:34.136Z,100088.41
2022-09-23T08:49:02.993Z,100076.03
2022-09-23T08:51:36.663Z,100072.00
2022-09-23T08:54:04.666Z,100072.13
2022-09-23T08:56:35.462Z,100072.31
2022-09-23T08:59:10.377Z,100067.38
2022-09-23T09:01:43.729Z,100064.19
2022-09-23T09:04:18.678Z,100067.63
2022-09-23T09:06:53.967Z,100062.00
2022-09-23T09:09:29.413Z,100059.63
2022-09-23T09:12:04.211Z,100054.69
2022-09-23T09:14:38.877Z,100054.75
2022-09-23T09:17:10.540Z,100057.41
2022-09-23T09:19:55.303Z,100059.38
2022-09-23T09:22:34.169Z,100055.59
2022-09-23T09:25:11.120Z,100052.28
2022-09-23T09:27:42.272Z,100053.22
2022-09-23T09:30:15.428Z,100041.56
2022-09-23T09:32:48.319Z,100037.63
2022-09-23T09:35:33.263Z,100033.50
2022-09-23T09:38:01.813Z,100035.28
2022-09-23T09:40:29.669Z,100022.75
2022-09-23T09:42:57.705Z,100027.91
2022-09-23T09:45:57.510Z,100025.28
2022-09-23T09:48:34.236Z,100031.38
2022-09-23T09:51:19.567Z,100023.03
2022-09-23T09:53:47.427Z,100020.59
2022-09-23T09:56:17.240Z,100021.50
2022-09-23T09:58:49.360Z,100024.81
2022-09-23T10:01:26.693Z,100019.03
2022-09-23T10:03:59.146Z,100015.56
2022-09-23T10:06:29.611Z,100011.34
2022-09-23T10:09:13.793Z,100013.09
2022-09-23T10:11:42.776Z,100006.44
2022-09-23T10:14:17.996Z,100015.84
2022-09-23T10:16:48.752Z,100012.66
2022-09-23T10:19:26.823Z,100005.09
2022-09-23T10:21:59.837Z,100008.50
2022-09-23T10:24:30.982Z,100016.91
2022-09-23T10:27:02.735Z,100001.94
2022-09-23T10:29:32.976Z,100002.34
2022-09-23T10:32:26.848Z,99995.69
2022-09-23T10:34:58.309Z,99987.31
2022-09-23T10:37:33.998Z,99993.38
2022-09-23T10:40:29.896Z,99988.41
2022-09-23T10:43:30.348Z,99981.63
2022-09-23T10:46:21.606Z,99985.78
2022-09-23T10:49:08.899Z,99989.25
2022-09-23T10:51:45.489Z,99976.22
2022-09-23T10:54:28.441Z,99986.78
2022-09-23T10:57:02.402Z,99978.72
2022-09-23T10:59:48.213Z,99973.91
2022-09-23T11:02:32.389Z,99968.19
2022-09-23T11:05:15.454Z,99957.47
2022-09-23T11:07:50.468Z,99958.50
2022-09-23T11:10:55.786Z,99955.25
2022-09-23T11:13:41.208Z,99946.03
2022-09-23T11:16:20.041Z,99949.34
2022-09-23T11:19:10.757Z,99949.41
2022-09-23T11:21:57.051Z,99928.38
2022-09-23T11:24:50.081Z,99941.00
2022-09-23T11:27:31.504Z,99935.09
2022-09-23T11:30:08.094Z,99925.75
2022-09-23T11:35:42.614Z,99924.00
2022-09-23T11:38:18.701Z,99924.84
2022-09-23T11:40:54.725Z,99920.66
2022-09-23T11:43:25.222Z,99916.63
2022-09-23T11:45:59.655Z,99920.19
2022-09-23T11:48:34.545Z,99923.09
2022-09-23T11:51:05.843Z,99916.50
2022-09-23T11:53:43.366Z,99916.59
2022-09-23T11:56:32.075Z,99908.38
2022-09-23T11:59:10.613Z,99926.22
2022-09-23T12:01:45.809Z,99915.63
2022-09-23T12:04:24.903Z,99916.81
2022-09-23T12:06:58.733Z,99915.44
2022-09-23T12:09:57.352Z,99918.06
2022-09-23T12:12:30.342Z,99915.81
2022-09-23T12:15:04.556Z,99905.75
2022-09-23T12:17:51.618Z,99916.78
2022-09-23T12:20:33.657Z,99910.09
2022-09-23T12:23:14.889Z,99908.41
2022-09-23T12:25:49.912Z,99907.63
2022-09-23T12:28:22.981Z,99900.13
2022-09-23T12:30:54.822Z,99902.81
2022-09-23T12:33:24.907Z,99892.81
2022-09-23T12:35:54.432Z,99900.50
2022-09-23T12:38:26.223Z,99883.75
2022-09-23T12:40:57.113Z,99882.91
2022-09-23T12:43:30.830Z,99873.63
2022-09-23T12:46:27.188Z,99881.13
2022-09-23T12:49:03.592Z,99876.84
2022-09-23T12:51:32.704Z,99875.16
2022-09-23T12:54:25.336Z,99876.78
2022-09-23T12:57:02.024Z,99875.94
2022-09-23T12:59:48.792Z,99871.72
2022-09-23T13:02:27.318Z,99871.69
2022-09-23T13:05:18.060Z,99865.78
2022-09-23T13:07:49.781Z,99843.75
2022-09-23T13:10:26.153Z,99873.22
2022-09-23T13:12:56.282Z,99854.56
2022-09-23T13:15:29.986Z,99862.09
2022-09-23T13:18:46.207Z,99859.53
2022-09-23T13:21:20.039Z,99844.31
2022-09-23T13:24:20.211Z,99861.16
2022-09-23T13:26:51.171Z,99856.06
2022-09-23T13:29:23.155Z,99856.00
2022-09-23T13:31:51.041Z,99850.91
2022-09-23T13:34:22.892Z,99854.25
2022-09-23T13:36:50.713Z,99840.72
2022-09-23T13:39:24.611Z,99842.41
2022-09-23T13:41:54.753Z,99841.59
2022-09-23T13:44:23.960Z,99841.59
2022-09-23T13:46:53.760Z,99832.28
2022-09-23T13:49:25.366Z,99832.28
2022-09-23T13:51:54.070Z,99828.81
2022-09-23T13:54:30.939Z,99821.94
2022-09-23T13:56:59.278Z,99819.28
2022-09-23T13:59:30.675Z,99825.16
2022-09-23T14:02:06.211Z,99829.38
2022-09-23T14:04:34.176Z,99822.88
2022-09-23T14:07:02.938Z,99815.34
2022-09-23T14:09:32.166Z,99821.28
2022-09-23T14:12:01.932Z,99820.72
2022-09-23T14:14:31.970Z,99810.78
2022-09-23T14:17:00.458Z,99808.47
2022-09-23T14:19:28.369Z,99806.09
2022-09-23T14:21:57.434Z,99785.09
2022-09-23T14:24:31.825Z,99798.63
2022-09-23T14:27:02.675Z,99802.88
2022-09-23T14:29:34.750Z,99799.44
2022-09-23T14:32:04.868Z,99795.16
2022-09-23T14:34:48.097Z,99795.97
2022-09-23T14:37:43.616Z,99796.72
2022-09-23T14:40:16.372Z,99791.56
2022-09-23T14:42:46.717Z,99787.19
2022-09-23T14:45:20.048Z,99793.84
2022-09-23T14:47:50.772Z,99793.84
2022-09-23T14:50:39.618Z,99792.16
2022-09-23T14:53:40.301Z,99775.91
2022-09-23T14:56:14.569Z,99785.88
2022-09-23T14:58:49.510Z,99785.72
2022-09-23T15:01:37.793Z,99773.72
2022-09-23T15:04:18.103Z,99772.84
2022-09-23T15:06:50.789Z,99764.47
2022-09-23T15:09:24.357Z,99761.97
2022-09-23T15:11:54.168Z,99770.53
2022-09-23T15:14:37.220Z,99760.44
2022-09-23T15:17:15.920Z,99761.16
2022-09-23T15:19:44.161Z,99757.72
2022-09-23T15:22:12.921Z,99769.09
2022-09-23T15:24:45.956Z,99766.06
2022-09-23T15:27:33.970Z,99762.09
2022-09-23T15:30:14.912Z,99756.28
2022-09-23T15:32:45.330Z,99761.22
2022-09-23T15:35:15.871Z,99755.44
2022-09-23T15:37:44.796Z,99752.91
2022-09-23T15:40:20.674Z,99758.84
2022-09-23T15:42:51.423Z,99745.28
2022-09-23T15:45:22.315Z,99752.88
2022-09-23T15:47:52.225Z,99748.59
2022-09-23T15:50:20.688Z,99748.59
2022-09-23T15:52:48.584Z,99756.97
2022-09-23T15:55:17.575Z,99750.19
2022-09-23T15:57:45.357Z,99751.00
2022-09-23T16:00:15.695Z,99748.47
2022-09-23T16:02:45.698Z,99742.56
2022-09-23T16:05:21.256Z,99751.97
2022-09-23T16:07:52.118Z,99753.72
2022-09-23T16:10:22.425Z,99753.75
2022-09-23T16:12:52.674Z,99743.72
2022-09-23T16:15:22.217Z,99742.97
2022-09-23T16:17:50.448Z,99748.91
2022-09-23T16:20:19.910Z,99751.41
2022-09-23T16:22:54.651Z,99745.47
2022-09-23T16:25:28.123Z,99751.28
2022-09-23T16:27:57.232Z,99752.03
2022-09-23T16:30:26.738Z,99751.91
2022-09-23T16:32:55.338Z,99744.16
2022-09-23T16:35:26.844Z,99751.59
2022-09-23T16:37:55.718Z,99748.97
2022-09-23T16:40:24.871Z,99751.28
2022-09-23T16:42:54.419Z,99749.47
2022-09-23T16:45:23.254Z,99749.31
2022-09-23T16:47:54.276Z,99748.38
2022-09-23T16:50:24.981Z,99750.75
2022-09-23T16:52:55.114Z,99756.44
2022-09-23T16:55:27.186Z,99736.88
2022-09-23T16:57:56.342Z,99750.94
2022-09-23T17:00:42.184Z,99764.38
2022-09-23T17:03:30.571Z,99770.19
2022-09-23T17:06:03.412Z,99765.88
2022-09-23T17:08:34.190Z,99763.34
2022-09-23T17:11:02.087Z,99753.97
2022-09-23T17:13:30.960Z,99764.91
2022-09-23T17:15:59.312Z,99763.19
2022-09-23T17:18:27.495Z,99767.31
2022-09-23T17:21:01.492Z,99770.56
2022-09-23T17:23:31.570Z,99774.66
2022-09-23T17:26:00.773Z,99766.03
2022-09-23T17:28:29.029Z,99776.06
2022-09-23T17:30:58.929Z,99767.47
2022-09-23T17:33:27.902Z,99784.25
2022-09-23T17:35:56.714Z,99776.59
2022-09-23T17:38:29.091Z,99774.81
2022-09-23T17:41:01.117Z,99783.06
2022-09-23T17:43:31.053Z,99769.56
2022-09-23T17:46:05.169Z,99785.44
2022-09-23T17:48:35.314Z,99773.59
2022-09-23T17:51:05.516Z,99783.63
2022-09-23T17:53:35.960Z,99791.09
2022-09-23T17:56:05.725Z,99786.81
2022-09-23T17:58:35.455Z,99791.63
2022-09-23T18:01:03.432Z,99776.19
2022-09-23T18:03:32.711Z,99794.69
2022-09-23T18:06:11.583Z,99800.38
2022-09-23T18:08:41.677Z,99801.06
2022-09-23T18:11:18.375Z,99801.06
2022-09-23T18:13:51.263Z,99796.13
2022-09-23T18:16:20.175Z,99799.47
2022-09-23T18:18:51.421Z,99793.69
2022-09-23T18:21:19.668Z,99794.56
2022-09-23T18:23:49.188Z,99791.16
2022-09-23T18:26:18.882Z,99794.53
2022-09-23T18:28:48.023Z,99797.03
2022-09-23T18:31:18.050Z,99802.88
2022-09-23T18:33:50.297Z,99799.47
2022-09-23T18:36:18.180Z,99789.34
2022-09-23T18:38:46.604Z,99790.91
2022-09-23T18:41:16.304Z,99797.38
2022-09-23T18:43:48.322Z,99808.25
2022-09-23T18:46:18.195Z,99806.50
2022-09-23T18:49:03.763Z,99813.91
2022-09-23T18:51:32.370Z,99810.44
2022-09-23T18:54:01.807Z,99800.31
2022-09-23T18:56:37.054Z,99811.06
2022-09-23T18:59:06.302Z,99816.78
2022-09-23T19:01:34.652Z,99803.31
2022-09-23T19:04:03.386Z,99810.81
2022-09-23T19:06:34.534Z,99811.56
2022-09-23T19:09:02.892Z,99809.03
2022-09-23T19:11:32.674Z,99804.78
2022-09-23T19:14:01.440Z,99809.66
2022-09-23T19:16:31.617Z,99809.53
2022-09-23T19:19:00.909Z,99809.44
2022-09-23T19:21:30.061Z,99799.16
2022-09-23T19:24:03.373Z,99801.75
2022-09-23T19:26:35.172Z,99810.09
2022-09-23T19:29:04.449Z,99815.81
2022-09-23T19:31:34.435Z,99810.78
2022-09-23T19:34:04.524Z,99803.28
2022-09-23T19:36:34.692Z,99805.69
2022-09-23T19:39:04.404Z,99799.75
2022-09-23T19:41:35.405Z,99792.03
2022-09-23T19:44:07.659Z,99796.97
2022-09-23T19:46:37.660Z,99786.72
2022-09-23T19:49:07.349Z,99796.13
2022-09-23T19:51:35.874Z,99801.84
2022-09-23T19:54:04.917Z,99799.00
2022-09-23T19:56:35.042Z,99804.53
2022-09-23T19:59:05.869Z,99794.41
2022-09-23T20:01:34.592Z,99796.06
2022-09-23T20:04:03.137Z,99799.38
2022-09-23T20:06:32.044Z,99805.81
2022-09-23T20:09:00.828Z,99805.16
2022-09-23T20:11:29.892Z,99791.66
2022-09-23T20:14:01.513Z,99804.38
2022-09-23T20:16:32.865Z,99799.44
2022-09-23T20:19:01.778Z,99801.88
2022-09-23T20:21:30.115Z,99799.44
2022-09-23T20:23:58.244Z,99800.22
2022-09-23T20:26:49.020Z,99800.94
2022-09-23T20:29:18.408Z,99811.56
2022-09-23T20:31:46.296Z,99799.88
2022-09-23T20:34:14.262Z,99797.03
2022-09-23T20:36:42.525Z,99793.22
2022-09-23T20:39:10.995Z,99797.91
2022-09-23T20:41:39.785Z,99811.88
2022-09-23T20:44:12.463Z,99804.50
2022-09-23T20:46:47.840Z,99799.50
2022-09-23T20:49:16.643Z,99803.22
2022-09-23T20:51:44.492Z,99794.16
2022-09-23T20:54:12.991Z,99794.38
2022-09-23T20:56:41.043Z,99790.31
2022-09-23T20:59:10.552Z,99795.41
2022-09-23T21:01:38.484Z,99792.91
2022-09-23T21:04:09.621Z,99793.44
2022-09-23T21:06:39.099Z,99793.03
2022-09-23T21:09:08.674Z,99800.94
2022-09-23T21:11:36.692Z,99797.09
2022-09-23T21:14:04.697Z,99783.59
2022-09-23T21:16:32.708Z,99794.34
2022-09-23T21:19:02.779Z,99798.56
2022-09-23T21:21:31.937Z,99795.22
2022-09-23T21:24:17.345Z,99798.69
2022-09-23T21:26:50.207Z,99793.78
2022-09-23T21:29:18.152Z,99797.44
2022-09-23T21:31:47.389Z,99790.59
2022-09-23T21:34:15.863Z,99798.69
2022-09-23T21:36:46.145Z,99804.16
2022-09-23T21:39:14.467Z,99768.25
2022-09-23T21:41:42.338Z,99805.22
2022-09-23T21:44:10.497Z,99804.38
2022-09-23T21:46:38.389Z,99773.91
2022-09-23T21:49:06.637Z,99803.84
2022-09-23T21:51:40.788Z,99804.09
2022-09-23T21:54:13.892Z,99802.50
2022-09-23T21:56:42.107Z,99809.94
2022-09-23T21:59:09.971Z,99809.34
2022-09-23T22:01:40.097Z,99806.75
2022-09-23T22:04:14.021Z,99811.47
2022-09-23T22:06:42.320Z,99801.13
2022-09-23T22:09:14.291Z,99799.16
2022-09-23T22:12:00.241Z,99803.63
2022-09-23T22:14:29.508Z,99816.25
2022-09-23T22:17:00.010Z,99815.25
2022-09-23T22:19:34.688Z,99807.00
2022-09-23T22:22:02.995Z,99807.13
2022-09-23T22:24:32.083Z,99814.06
2022-09-23T22:26:59.893Z,99811.91
2022-09-23T22:29:45.452Z,99816.25
2022-09-23T22:32:30.663Z,99810.50
2022-09-23T22:34:58.527Z,99819.06
2022-09-23T22:37:28.702Z,99812.38
2022-09-23T22:39:57.899Z,99807.00
2022-09-23T22:42:26.096Z,99815.41
2022-09-23T22:44:55.416Z,99810.91
2022-09-23T22:47:23.524Z,99814.94
2022-09-23T22:49:54.451Z,99812.09
2022-09-23T22:52:24.398Z,99808.41
2022-09-23T22:54:52.676Z,99807.81
2022-09-23T22:57:21.868Z,99815.41
2022-09-23T22:59:49.667Z,99813.66
2022-09-23T23:02:18.796Z,99811.16
2022-09-23T23:04:48.142Z,99809.66
2022-09-23T23:07:20.766Z,99816.56
2022-09-23T23:09:50.316Z,99815.50
2022-09-23T23:12:20.052Z,99815.91
2022-09-23T23:14:50.885Z,99823.66
2022-09-23T23:17:18.839Z,99808.06
2022-09-23T23:19:46.871Z,99810.00
2022-09-23T23:22:14.636Z,99805.03
2022-09-23T23:24:42.393Z,99808.50
2022-09-23T23:27:10.280Z,99803.41
2022-09-23T23:29:38.117Z,99800.56
2022-09-23T23:32:07.658Z,99801.41
2022-09-23T23:34:35.459Z,99792.41
2022-09-23T23:37:03.312Z,99793.22
2022-09-23T23:39:31.103Z,99792.09
2022-09-23T23:41:59.149Z,99792.56
2022-09-23T23:44:27.759Z,99795.19
2022-09-23T23:46:55.709Z,99792.13
2022-09-23T23:49:25.599Z,99792.16
2022-09-23T23:51:53.678Z,99782.81
2022-09-23T23:54:21.547Z,99790.28
2022-09-23T23:56:49.400Z,99786.59
2022-09-23T23:59:19.698Z,99781.31
